Chicago, IL (60631)

5:32 PM CST on February 12, 2016 (GMT -0600)
Norwood Park Township | | Change Station
CLOSE
Current Station
Personal Weather Station
Location: Norwood Park Township, IL
Elevation: 646 ft
Nearby Weather Stations
Active Advisory: Wind Chill Advisory

Elev 646 ft 41.98 °N, 87.83 °W | Updated 3 minutes ago

Partly Cloudy
Partly Cloudy
18.6 °F
Feels Like 4 °F
N
15.0
Wind Variable Wind from NW
Gusts 17.0 mph

Today
High -- | Low -- °F
--% Chance of Precip.
Yesterday
High -- | Low -- °F
Precip. -- in
Pressure 30.26 in
Visibility 10.0 miles
Clouds Few 5000 ft
Windchill 4 °F
Dew Point -1 °F
Humidity 43%
Rainfall 0.00 in
Snow Depth Not available.
6:51 AM 5:19 PM
Waxing Crescent, 24% visible
METAR KORD 122251Z 32023G30KT 10SM FEW050 M07/M19 A3022 RMK AO2 PK WND 33031/2225 SLP247 T10721194
Pressure 30.26 in
Visibility 10.0 miles
Clouds Few 5000 ft
Windchill 4 °F
Dew Point -1 °F
Humidity 43%
Rainfall 0.00 in
Snow Depth Not available.
6:51 AM 5:19 PM
Waxing Crescent, 24% visible
METAR KORD 122251Z 32023G30KT 10SM FEW050 M07/M19 A3022 RMK AO2 PK WND 33031/2225 SLP247 T10721194

10-Day Weather Forecast

Almanac

Astronomy

Feb. 12, 2016 Rise Set
Actual Time
Civil Twilight
Nautical Twilight
Astronomical Twilight
Moon
Length of Visible Light
Length of Day
Tomorrow will be .
, % of the Moon is Illuminated

Today's Extremes

State Highs State Lows

Community

WunderPhotos

Upload Photos

1,892,437 photos uploaded!

WunderBlog® & News

Nearby

Air Quality

  Air Quality AQ Index Pollutant
Not available.

Snow Depth

Station Depth Elevation

Earthquake Activity

City Distance Mag. Time & Date
Minimum magnitude displayed is 2.5.

Coastal Water Temperatures

Place Temperature

Stations

Nearby Weather Stations

Station Location Temp. Windchill Dew Point Humidity Wind Precip. Elev Updated Type
                   

Watches & Warnings

Wind Chill Advisory
Issued: 2:49 PM CST Feb. 12, 2016 – National Weather Service

... Wind Chill Advisory remains in effect from midnight tonight to
9 am CST Saturday...

* wind chill values... around 20 below zero.

* Other impacts... bitter cold wind chills can cause frostbite to
exposed skin in as little as 30 minutes.

Precautionary/preparedness actions...

A Wind Chill Advisory means that the wind will combine with the
very cold air to generate low wind chills. This will result in
frost bite and lead to hypothermia if precautions are not taken.
If you must venture outdoors... make sure you wear a hat and
gloves.



Kjb